Air Navigation Services of Czech Republic
Airport: LKMT Updated:  15.10.2019 18:30:28  UTC
 METAR LKMT 15.10. 18:30 ...
METAR LKMT 151830Z 19010G20KT 160V220 CAVOK 20/08 Q1009 NOSIG RMK REG QNH 1005=
 TAF LKMT 15.10. 17:00 ...
TAF LKMT 151700Z 1518/1700 21009KT CAVOK      TEMPO 1518/1615 23012G24KT      BECMG 1610/1612 9999 BKN035      TEMPO 1612/1618 6000 RA BKN030      BECMG 1618/1621 24007KT CAVOK=